www.cux-wetter.de
Wetterdaten: Freitag, 01.06.2012
Datum Zeit Temp. A. Feuchte A. Luftdruck Regen Wind Richtung Richtung Sonnenschein Solar Taupunkt Windchill Windben
01.06.2012 00:00 12,0 C 88 % 1010,5 hPa 0,0 l/m 19,7 km/h (3 Bft) NO 45 0 min 0 W/m 10,1 C 6,0 C 19,7 km/h (3 Bft)
01.06.2012 00:15 12,0 C 88 % 1010,5 hPa 0,0 l/m 19,4 km/h (3 Bft) NO 35 0 min 0 W/m 10,1 C 6,1 C 19,4 km/h (3 Bft)
01.06.2012 00:30 12,1 C 88 % 1010,5 hPa 0,0 l/m 18,1 km/h (3 Bft) NO 45 0 min 0 W/m 10,2 C 6,6 C 18,1 km/h (3 Bft)
01.06.2012 00:45 12,1 C 88 % 1010,5 hPa 0,0 l/m 16,0 km/h (3 Bft) NO 35 0 min 0 W/m 10,2 C 7,3 C 16,0 km/h (3 Bft)
01.06.2012 01:00 12,2 C 88 % 1010,5 hPa 0,0 l/m 16,1 km/h (3 Bft) NO 35 0 min 0 W/m 10,3 C 7,4 C 16,1 km/h (3 Bft)
01.06.2012 01:15 12,2 C 88 % 1010,5 hPa 0,0 l/m 18,0 km/h (3 Bft) NO 40 0 min 0 W/m 10,3 C 6,7 C 18,0 km/h (3 Bft)
01.06.2012 01:30 12,1 C 87 % 1010,5 hPa 0,0 l/m 15,1 km/h (3 Bft) NO 40 0 min 0 W/m 10,0 C 7,6 C 15,1 km/h (3 Bft)
01.06.2012 01:45 12,0 C 86 % 1010,5 hPa 0,0 l/m 18,5 km/h (3 Bft) N-NO 20 0 min 0 W/m 9,7 C 6,3 C 18,5 km/h (3 Bft)
01.06.2012 02:00 12,0 C 85 % 1010,5 hPa 0,0 l/m 20,7 km/h (4 Bft) N-NO 15 0 min 0 W/m 9,6 C 5,7 C 20,7 km/h (4 Bft)
01.06.2012 02:15 12,0 C 84 % 1010,5 hPa 0,0 l/m 21,4 km/h (4 Bft) N-NO 30 0 min 0 W/m 9,4 C 5,5 C 21,4 km/h (4 Bft)
01.06.2012 02:30 11,9 C 83 % 1010,5 hPa 0,0 l/m 19,4 km/h (3 Bft) N-NO 25 0 min 0 W/m 9,1 C 5,9 C 19,4 km/h (3 Bft)
01.06.2012 02:45 11,8 C 83 % 1010,5 hPa 0,0 l/m 22,8 km/h (4 Bft) N-NO 20 0 min 0 W/m 9,0 C 4,8 C 22,8 km/h (4 Bft)
01.06.2012 03:00 11,8 C 82 % 1010,5 hPa 0,0 l/m 21,6 km/h (4 Bft) N-NO 30 0 min 0 W/m 8,8 C 5,2 C 21,6 km/h (4 Bft)
01.06.2012 03:15 11,6 C 80 % 1010,5 hPa 0,0 l/m 26,6 km/h (4 Bft) N 5 0 min 0 W/m 8,3 C 3,6 C 26,6 km/h (4 Bft)
01.06.2012 03:30 11,4 C 79 % 1010,5 hPa 0,0 l/m 25,9 km/h (4 Bft) N-NO 25 0 min 0 W/m 7,9 C 3,5 C 25,9 km/h (4 Bft)
01.06.2012 03:46 11,4 C 78 % 1010,5 hPa 0,0 l/m 24,2 km/h (4 Bft) N-NO 25 0 min 0 W/m 7,7 C 3,9 C 24,2 km/h (4 Bft)
01.06.2012 04:00 11,3 C 77 % 1011,5 hPa 0,0 l/m 27,5 km/h (5 Bft) N-NO 20 0 min 0 W/m 7,4 C 3,0 C 27,5 km/h (5 Bft)
01.06.2012 04:15 11,3 C 76 % 1011,5 hPa 0,0 l/m 25,4 km/h (4 Bft) N 5 0 min 0 W/m 7,2 C 3,5 C 25,4 km/h (4 Bft)
01.06.2012 04:30 11,3 C 76 % 1011,5 hPa 0,0 l/m 27,8 km/h (5 Bft) N 360 0 min 0 W/m 7,2 C 2,9 C 27,8 km/h (5 Bft)
01.06.2012 04:45 11,2 C 75 % 1011,5 hPa 0,0 l/m 30,0 km/h (5 Bft) N-NO 15 0 min 0 W/m 6,9 C 2,3 C 30,0 km/h (5 Bft)
01.06.2012 05:00 11,2 C 73 % 1011,5 hPa 0,0 l/m 26,6 km/h (4 Bft) N-NO 20 0 min 0 W/m 6,5 C 3,1 C 26,6 km/h (4 Bft)
01.06.2012 05:15 11,2 C 72 % 1011,5 hPa 0,0 l/m 25,5 km/h (4 Bft) N-NO 15 0 min 0 W/m 6,3 C 3,3 C 25,5 km/h (4 Bft)
01.06.2012 05:30 11,2 C 73 % 1011,5 hPa 0,0 l/m 30,4 km/h (5 Bft) N 5 0 min 0 W/m 6,5 C 2,3 C 30,4 km/h (5 Bft)
01.06.2012 05:45 11,2 C 73 % 1011,5 hPa 0,0 l/m 26,4 km/h (4 Bft) N 10 0 min 0 W/m 6,5 C 3,1 C 26,4 km/h (4 Bft)
01.06.2012 06:00 11,2 C 69 % 1011,5 hPa 0,0 l/m 34,0 km/h (5 Bft) N 355 0 min 0 W/m 5,7 C 1,6 C 34,0 km/h (5 Bft)
01.06.2012 06:15 11,2 C 66 % 1011,5 hPa 0,0 l/m 31,9 km/h (5 Bft) N 360 0 min 0 W/m 5,1 C 2,0 C 31,9 km/h (5 Bft)
01.06.2012 06:30 11,3 C 71 % 1011,5 hPa 0,0 l/m 35,8 km/h (5 Bft) N 5 0 min 0 W/m 6,2 C 1,4 C 35,8 km/h (5 Bft)
01.06.2012 06:45 11,2 C 71 % 1011,5 hPa 0,0 l/m 32,6 km/h (5 Bft) N-NO 15 0 min 0 W/m 6,1 C 1,8 C 32,6 km/h (5 Bft)
01.06.2012 07:00 11,1 C 71 % 1012,5 hPa 0,0 l/m 34,6 km/h (5 Bft) N-NO 15 0 min 0 W/m 6,0 C 1,4 C 34,6 km/h (5 Bft)
01.06.2012 07:15 11,1 C 65 % 1012,5 hPa 0,0 l/m 29,3 km/h (5 Bft) N-NO 30 0 min 0 W/m 4,8 C 2,3 C 29,3 km/h (5 Bft)
01.06.2012 07:30 11,4 C 61 % 1012,5 hPa 0,0 l/m 39,4 km/h (6 Bft) N 10 0 min 0 W/m 4,2 C 1,1 C 39,4 km/h (6 Bft)
01.06.2012 07:45 11,5 C 60 % 1012,5 hPa 0,0 l/m 34,2 km/h (5 Bft) N 360 0 min 0 W/m 4,0 C 2,0 C 34,2 km/h (5 Bft)
01.06.2012 08:00 11,6 C 65 % 1012,5 hPa 0,0 l/m 28,4 km/h (5 Bft) N 355 0 min 0 W/m 5,2 C 3,2 C 28,4 km/h (5 Bft)
01.06.2012 08:15 11,5 C 67 % 1012,5 hPa 0,0 l/m 32,6 km/h (5 Bft) N 10 0 min 0 W/m 5,6 C 2,3 C 32,6 km/h (5 Bft)
01.06.2012 08:30 11,6 C 65 % 1012,5 hPa 0,0 l/m 29,3 km/h (5 Bft) N-NO 20 0 min 0 W/m 5,2 C 3,0 C 29,3 km/h (5 Bft)
01.06.2012 08:45 11,9 C 63 % 1012,5 hPa 0,0 l/m 35,0 km/h (5 Bft) N 350 0 min 0 W/m 5,1 C 2,4 C 35,0 km/h (5 Bft)
01.06.2012 09:00 11,8 C 64 % 1012,5 hPa 0,0 l/m 38,9 km/h (6 Bft) N-NW 330 0 min 0 W/m 5,2 C 1,7 C 38,9 km/h (6 Bft)
01.06.2012 09:15 12,0 C 67 % 1012,5 hPa 0,0 l/m 37,0 km/h (5 Bft) NW 315 0 min 0 W/m 6,1 C 2,3 C 37,0 km/h (5 Bft)
01.06.2012 09:30 12,1 C 67 % 1012,5 hPa 0,0 l/m 29,5 km/h (5 Bft) N 350 0 min 0 W/m 6,2 C 3,7 C 29,5 km/h (5 Bft)
01.06.2012 09:45 11,8 C 70 % 1013,5 hPa 0,0 l/m 39,8 km/h (6 Bft) N 10 0 min 0 W/m 6,5 C 1,6 C 39,8 km/h (6 Bft)
01.06.2012 10:00 11,8 C 68 % 1013,5 hPa 0,0 l/m 40,2 km/h (6 Bft) N-NO 25 0 min 0 W/m 6,1 C 1,5 C 40,2 km/h (6 Bft)
01.06.2012 10:15 12,5 C 66 % 1013,5 hPa 0,0 l/m 32,0 km/h (5 Bft) N 360 0 min 0 W/m 6,3 C 3,8 C 32,0 km/h (5 Bft)
01.06.2012 10:30 12,7 C 63 % 1013,5 hPa 0,0 l/m 34,0 km/h (5 Bft) N 360 0 min 0 W/m 5,8 C 3,8 C 34,0 km/h (5 Bft)
01.06.2012 10:45 12,9 C 60 % 1013,5 hPa 0,0 l/m 31,6 km/h (5 Bft) N-NO 15 0 min 0 W/m 5,3 C 4,4 C 31,6 km/h (5 Bft)
01.06.2012 11:00 13,1 C 62 % 1013,5 hPa 0,0 l/m 36,4 km/h (5 Bft) N 355 0 min 0 W/m 6,0 C 4,0 C 36,4 km/h (5 Bft)
01.06.2012 11:15 13,5 C 62 % 1013,5 hPa 0,0 l/m 31,8 km/h (5 Bft) N-NW 335 0 min 0 W/m 6,4 C 5,3 C 31,8 km/h (5 Bft)
01.06.2012 11:30 13,3 C 63 % 1013,5 hPa 0,0 l/m 28,6 km/h (5 Bft) N 355 0 min 0 W/m 6,4 C 5,6 C 28,6 km/h (5 Bft)
01.06.2012 11:45 13,0 C 63 % 1013,5 hPa 0,0 l/m 35,9 km/h (5 Bft) N-NW 345 0 min 0 W/m 6,1 C 3,9 C 35,9 km/h (5 Bft)
01.06.2012 12:00 13,3 C 61 % 1013,5 hPa 0,0 l/m 39,4 km/h (6 Bft) N 5 0 min 0 W/m 5,9 C 3,9 C 39,4 km/h (6 Bft)
01.06.2012 12:15 13,5 C 60 % 1013,5 hPa 0,0 l/m 31,9 km/h (5 Bft) N 350 0 min 0 W/m 5,9 C 5,2 C 31,9 km/h (5 Bft)
01.06.2012 12:30 13,1 C 62 % 1013,5 hPa 0,0 l/m 28,1 km/h (5 Bft) N-NO 30 0 min 0 W/m 6,0 C 5,4 C 28,1 km/h (5 Bft)
01.06.2012 12:45 13,6 C 61 % 1013,5 hPa 0,0 l/m 34,8 km/h (5 Bft) N 360 0 min 0 W/m 6,2 C 4,9 C 34,8 km/h (5 Bft)
01.06.2012 13:00 13,3 C 62 % 1013,5 hPa 0,0 l/m 35,3 km/h (5 Bft) N-NO 20 0 min 0 W/m 6,2 C 4,4 C 35,3 km/h (5 Bft)
01.06.2012 13:15 12,5 C 65 % 1014,5 hPa 0,0 l/m 36,3 km/h (5 Bft) N-NO 15 0 min 0 W/m 6,1 C 3,1 C 36,3 km/h (5 Bft)
01.06.2012 13:30 13,0 C 66 % 1014,5 hPa 0,3 l/m 27,3 km/h (5 Bft) N-NW 330 0 min 0 W/m 6,8 C 5,4 C 27,3 km/h (5 Bft)
01.06.2012 13:45 14,0 C 63 % 1014,5 hPa 0,0 l/m 34,5 km/h (5 Bft) N 355 0 min 0 W/m 7,1 C 5,6 C 34,5 km/h (5 Bft)
01.06.2012 14:00 13,7 C 61 % 1014,5 hPa 0,0 l/m 33,2 km/h (5 Bft) N 350 0 min 0 W/m 6,3 C 5,3 C 33,2 km/h (5 Bft)
01.06.2012 14:15 13,7 C 61 % 1014,5 hPa 0,0 l/m 33,6 km/h (5 Bft) N 5 0 min 0 W/m 6,3 C 5,3 C 33,6 km/h (5 Bft)
01.06.2012 14:30 14,0 C 57 % 1014,5 hPa 0,0 l/m 39,4 km/h (6 Bft) N 10 0 min 0 W/m 5,6 C 4,9 C 39,4 km/h (6 Bft)
01.06.2012 14:45 14,2 C 58 % 1014,5 hPa 0,0 l/m 33,5 km/h (5 Bft) N 355 0 min 0 W/m 6,1 C 6,0 C 33,5 km/h (5 Bft)
01.06.2012 15:00 13,8 C 59 % 1014,5 hPa 0,0 l/m 34,6 km/h (5 Bft) N 5 0 min 0 W/m 5,9 C 5,3 C 34,6 km/h (5 Bft)
01.06.2012 15:15 14,2 C 58 % 1014,5 hPa 0,0 l/m 38,5 km/h (6 Bft) N 5 0 min 0 W/m 6,1 C 5,3 C 38,5 km/h (6 Bft)
01.06.2012 15:30 13,8 C 59 % 1014,5 hPa 0,0 l/m 34,6 km/h (5 Bft) N 10 0 min 0 W/m 5,9 C 5,3 C 34,6 km/h (5 Bft)
01.06.2012 15:45 14,0 C 59 % 1014,5 hPa 0,0 l/m 30,1 km/h (5 Bft) N-NO 20 0 min 0 W/m 6,1 C 6,3 C 30,1 km/h (5 Bft)
01.06.2012 16:00 12,6 C 65 % 1014,5 hPa 0,0 l/m 39,2 km/h (6 Bft) N-NW 345 0 min 0 W/m 6,2 C 2,9 C 39,2 km/h (6 Bft)
01.06.2012 16:15 13,4 C 60 % 1014,5 hPa 0,0 l/m 39,4 km/h (6 Bft) N 5 0 min 0 W/m 5,8 C 4,0 C 39,4 km/h (6 Bft)
01.06.2012 16:30 13,5 C 60 % 1014,5 hPa 0,0 l/m 38,7 km/h (6 Bft) N 355 0 min 0 W/m 5,9 C 4,2 C 38,7 km/h (6 Bft)
01.06.2012 16:45 13,4 C 58 % 1014,5 hPa 0,0 l/m 37,2 km/h (5 Bft) N 10 0 min 0 W/m 5,3 C 4,3 C 37,2 km/h (5 Bft)
01.06.2012 17:00 13,6 C 57 % 1014,5 hPa 0,0 l/m 39,4 km/h (6 Bft) N-NO 25 0 min 0 W/m 5,2 C 4,3 C 39,4 km/h (6 Bft)
01.06.2012 17:15 13,5 C 56 % 1014,5 hPa 0,0 l/m 32,1 km/h (5 Bft) N 355 0 min 0 W/m 4,9 C 5,2 C 32,1 km/h (5 Bft)
01.06.2012 17:30 13,4 C 58 % 1014,5 hPa 0,0 l/m 34,9 km/h (5 Bft) N-NW 340 0 min 0 W/m 5,3 C 4,6 C 34,9 km/h (5 Bft)
01.06.2012 17:45 12,8 C 57 % 1014,5 hPa 0,0 l/m 31,7 km/h (5 Bft) N 5 0 min 0 W/m 4,5 C 4,3 C 31,7 km/h (5 Bft)
01.06.2012 18:00 12,9 C 58 % 1014,5 hPa 0,0 l/m 32,0 km/h (5 Bft) N 355 0 min 0 W/m 4,8 C 4,4 C 32,0 km/h (5 Bft)
01.06.2012 18:15 12,9 C 63 % 1014,5 hPa 0,0 l/m 42,1 km/h (6 Bft) N 10 0 min 0 W/m 6,0 C 2,9 C 42,1 km/h (6 Bft)
01.06.2012 18:30 12,8 C 58 % 1014,5 hPa 0,0 l/m 34,9 km/h (5 Bft) N 5 0 min 0 W/m 4,7 C 3,8 C 34,9 km/h (5 Bft)
01.06.2012 18:45 12,6 C 60 % 1014,5 hPa 0,0 l/m 40,5 km/h (6 Bft) N 10 0 min 0 W/m 5,0 C 2,7 C 40,5 km/h (6 Bft)
01.06.2012 19:00 12,6 C 59 % 1014,5 hPa 0,0 l/m 32,7 km/h (5 Bft) N-NW 345 0 min 0 W/m 4,8 C 3,8 C 32,7 km/h (5 Bft)
01.06.2012 19:15 12,4 C 60 % 1014,5 hPa 0,0 l/m 29,6 km/h (5 Bft) N 350 0 min 0 W/m 4,9 C 4,1 C 29,6 km/h (5 Bft)
01.06.2012 19:30 12,2 C 55 % 1014,5 hPa 0,0 l/m 32,3 km/h (5 Bft) N 360 0 min 0 W/m 3,4 C 3,3 C 32,3 km/h (5 Bft)
01.06.2012 19:45 12,1 C 60 % 1014,5 hPa 0,0 l/m 32,2 km/h (5 Bft) N-NW 345 0 min 0 W/m 4,6 C 3,2 C 32,2 km/h (5 Bft)
01.06.2012 20:00 11,6 C 62 % 1015,5 hPa 0,0 l/m 29,4 km/h (5 Bft) N 5 0 min 0 W/m 4,6 C 3,0 C 29,4 km/h (5 Bft)
01.06.2012 20:15 11,6 C 64 % 1015,5 hPa 0,0 l/m 30,8 km/h (5 Bft) NO 35 0 min 0 W/m 5,0 C 2,8 C 30,8 km/h (5 Bft)
01.06.2012 20:30 11,4 C 62 % 1014,5 hPa 0,0 l/m 36,2 km/h (5 Bft) N-NW 345 0 min 0 W/m 4,4 C 1,5 C 36,2 km/h (5 Bft)
01.06.2012 20:45 11,4 C 61 % 1014,5 hPa 0,0 l/m 32,1 km/h (5 Bft) N-NW 345 0 min 0 W/m 4,2 C 2,2 C 32,1 km/h (5 Bft)
01.06.2012 21:00 11,4 C 63 % 1014,5 hPa 0,0 l/m 27,6 km/h (5 Bft) N 355 0 min 0 W/m 4,6 C 3,1 C 27,6 km/h (5 Bft)
01.06.2012 21:15 11,2 C 64 % 1014,5 hPa 0,0 l/m 30,1 km/h (5 Bft) N 360 0 min 0 W/m 4,6 C 2,3 C 30,1 km/h (5 Bft)
01.06.2012 21:30 11,2 C 64 % 1014,5 hPa 0,0 l/m 34,5 km/h (5 Bft) N 355 0 min 0 W/m 4,6 C 1,5 C 34,5 km/h (5 Bft)
01.06.2012 21:45 11,0 C 63 % 1014,5 hPa 0,0 l/m 33,9 km/h (5 Bft) N-NW 345 0 min 0 W/m 4,2 C 1,3 C 33,9 km/h (5 Bft)
01.06.2012 22:00 10,8 C 65 % 1014,5 hPa 0,0 l/m 29,5 km/h (5 Bft) N 5 0 min 0 W/m 4,5 C 1,9 C 29,5 km/h (5 Bft)
01.06.2012 22:15 10,8 C 65 % 1014,5 hPa 0,0 l/m 34,0 km/h (5 Bft) N 5 0 min 0 W/m 4,5 C 1,0 C 34,0 km/h (5 Bft)
01.06.2012 22:30 10,5 C 65 % 1014,5 hPa 0,0 l/m 33,0 km/h (5 Bft) N 5 0 min 0 W/m 4,2 C 0,8 C 33,0 km/h (5 Bft)
01.06.2012 22:45 10,6 C 63 % 1014,5 hPa 0,0 l/m 30,3 km/h (5 Bft) N 350 0 min 0 W/m 3,9 C 1,4 C 30,3 km/h (5 Bft)
01.06.2012 23:00 10,2 C 66 % 1014,5 hPa 0,0 l/m 40,6 km/h (6 Bft) N 355 0 min 0 W/m 4,1 C -0,9 C 40,6 km/h (6 Bft)
01.06.2012 23:15 10,2 C 65 % 1014,5 hPa 0,0 l/m 29,7 km/h (5 Bft) N-NO 20 0 min 0 W/m 3,9 C 1,0 C 29,7 km/h (5 Bft)
01.06.2012 23:30 10,4 C 66 % 1014,5 hPa 0,0 l/m 30,2 km/h (5 Bft) N-NW 335 0 min 0 W/m 4,3 C 1,2 C 30,2 km/h (5 Bft)
01.06.2012 23:45 10,6 C 68 % 1014,5 hPa 0,0 l/m 30,3 km/h (5 Bft) N-NW 330 0 min 0 W/m 4,9 C 1,4 C 30,3 km/h (5 Bft)
_ Min-Zeit 23:00 19:30 00:00 - 01:30 - - - - 19:30 23:00 01:30
Minimum _ 10,2 C 55 % 1010,5 hPa - 15,1 km/h (3 Bft) - - - - 3,4 C -0,9 C 15,1 km/h (3 Bft)
_ Max-Zeit 14:45 00:00 20:00 13:30 18:15 - - 00:00 00:00 01:00 01:30 18:15
Maximum _ 14,2 C 88 % 1015,5 hPa 0,3 l/m 42,1 km/h
N (6 Bft)
- - 0 min 0 W/m 10,3 C 7,6 C 42,1 km/h
N-NO (6 Bft)
Durchschnitt _ 12,2 C 67 % 1013,1 hPa #0,3 l/m 31,2 km/h (5 Bft) N - #0 min. 0 W/m 6,1 C 3,6 C 31,2 km/h (5 Bft)
copyright by Holger Just